Time;durP1;ratioP1;P1;durP2;ratioP2;P2;SDS_P1;SDS_P2;PMS_P1;PMS_P2;Temp;Humidity;BMP_temperature;BMP_pressure;BME280_temperature;BME280_humidity;BME280_pressure;Samples;Min_cycle;Max_cycle;Signal;HPM_P1;HPM_P2
2024/02/09 00:00:12;;;;;;;17.77;9.63;;;1.50;99.90;;;;;;5088242;28;20040;-78
2024/02/09 00:02:41;;;;;;;18.67;9.20;;;1.50;99.90;;;;;;5088040;28;20032;-78
2024/02/09 00:05:15;;;;;;;18.83;9.52;;;1.40;99.90;;;;;;5082325;28;20074;-78
2024/02/09 00:07:46;;;;;;;18.33;9.45;;;1.40;99.90;;;;;;5085008;28;20432;-78
2024/02/09 00:10:12;;;;;;;18.52;10.20;;;1.40;99.90;;;;;;5086260;28;20390;-78
2024/02/09 00:12:39;;;;;;;12.90;9.07;;;1.50;99.90;;;;;;5092661;28;20099;-78
2024/02/09 00:15:06;;;;;;;14.30;8.60;;;1.50;99.90;;;;;;5092514;28;20032;-79
2024/02/09 00:17:33;;;;;;;18.67;8.90;;;1.50;99.90;;;;;;5089900;28;20039;-79
2024/02/09 00:19:59;;;;;;;15.05;9.23;;;1.40;99.90;;;;;;5092077;28;20067;-80
2024/02/09 00:22:25;;;;;;;14.45;8.48;;;1.50;99.90;;;;;;5090174;28;20549;-79
2024/02/09 00:24:51;;;;;;;12.88;8.10;;;1.50;99.90;;;;;;5090376;28;20032;-79
2024/02/09 00:27:18;;;;;;;15.32;8.65;;;1.40;99.90;;;;;;5107413;28;20092;-80
2024/02/09 00:29:43;;;;;;;19.70;10.05;;;1.40;99.90;;;;;;5078846;28;20024;-79
2024/02/09 00:32:09;;;;;;;17.75;8.75;;;1.50;99.90;;;;;;5091957;28;20501;-80
2024/02/09 00:34:35;;;;;;;12.93;8.02;;;1.40;99.90;;;;;;5090595;28;20039;-78
2024/02/09 00:37:01;;;;;;;13.45;8.68;;;1.40;99.90;;;;;;5108091;28;20532;-79
2024/02/09 00:39:33;;;;;;;16.83;9.48;;;1.40;99.90;;;;;;5089435;28;20052;-78
2024/02/09 00:42:00;;;;;;;15.05;8.55;;;1.30;99.90;;;;;;5091244;28;20024;-77
2024/02/09 00:44:25;;;;;;;16.90;9.45;;;1.30;99.90;;;;;;5090984;28;20028;-77
2024/02/09 00:46:51;;;;;;;18.35;9.55;;;1.40;99.90;;;;;;5081217;28;20043;-77
2024/02/09 00:49:18;;;;;;;16.08;9.63;;;1.40;99.90;;;;;;5086575;28;20459;-78
2024/02/09 00:51:44;;;;;;;14.43;8.10;;;1.40;99.90;;;;;;5090751;28;20370;-77
2024/02/09 00:54:14;;;;;;;15.75;8.70;;;1.30;99.90;;;;;;5090637;28;20086;-77
2024/02/09 00:56:40;;;;;;;17.42;8.88;;;1.30;99.90;;;;;;5082537;28;20067;-78
2024/02/09 00:59:05;;;;;;;15.82;8.52;;;1.30;99.90;;;;;;5075539;28;20149;-78
2024/02/09 01:01:32;;;;;;;17.50;9.85;;;1.30;99.90;;;;;;5074112;28;20037;-77
2024/02/09 01:04:00;;;;;;;18.73;10.55;;;1.40;99.90;;;;;;5092190;28;20016;-78
2024/02/09 01:06:26;;;;;;;23.17;12.13;;;1.30;99.90;;;;;;5082052;28;20025;-80
2024/02/09 01:08:52;;;;;;;24.75;12.57;;;1.30;99.90;;;;;;5088255;28;20024;-80
2024/02/09 01:11:18;;;;;;;24.35;12.27;;;1.30;99.90;;;;;;5075322;28;20024;-81
2024/02/09 02:46:26;;;;;;;12.88;6.78;;;1.20;99.90;;;;;;4997693;28;20084;-79
2024/02/09 03:05:33;;;;;;;15.98;9.88;;;1.10;99.90;;;;;;5011474;28;20041;-76
2024/02/09 03:07:59;;;;;;;16.05;9.15;;;1.10;99.90;;;;;;5080056;28;20025;-77
2024/02/09 03:10:25;;;;;;;20.75;9.25;;;1.10;99.90;;;;;;5080138;28;20022;-77
2024/02/09 03:12:53;;;;;;;20.20;10.73;;;1.10;99.90;;;;;;5012319;28;20203;-77
2024/02/09 03:15:19;;;;;;;18.95;9.30;;;1.00;99.90;;;;;;5079745;28;20026;-79
2024/02/09 03:17:51;;;;;;;19.92;9.45;;;1.00;99.90;;;;;;5079827;28;20033;-78
2024/02/09 03:20:17;;;;;;;18.25;10.05;;;1.10;99.90;;;;;;5079898;28;20022;-77
2024/02/09 03:22:44;;;;;;;20.10;9.60;;;1.10;99.90;;;;;;5080159;28;20037;-79
2024/02/09 03:25:10;;;;;;;17.73;10.13;;;1.10;99.90;;;;;;5079908;28;20024;-77
2024/02/09 03:27:39;;;;;;;17.10;9.73;;;1.10;99.90;;;;;;5079883;28;20101;-79
2024/02/09 03:30:07;;;;;;;20.85;11.10;;;1.10;99.90;;;;;;5079449;28;20033;-77
2024/02/09 03:32:33;;;;;;;21.25;11.65;;;1.10;99.90;;;;;;5079334;28;20026;-77
2024/02/09 03:35:01;;;;;;;21.20;10.60;;;1.10;99.90;;;;;;5011830;28;20025;-77
2024/02/09 03:37:27;;;;;;;24.25;12.07;;;1.00;99.90;;;;;;5078932;28;20099;-77
2024/02/09 03:39:56;;;;;;;17.13;10.05;;;1.10;99.90;;;;;;5079806;28;20018;-78
2024/02/09 03:42:23;;;;;;;20.55;11.43;;;1.00;99.90;;;;;;5011429;28;20539;-79
2024/02/09 03:44:49;;;;;;;24.42;11.15;;;1.10;99.90;;;;;;5011669;28;20467;-78
2024/02/09 03:47:16;;;;;;;23.10;10.13;;;1.10;99.90;;;;;;5011470;28;20033;-77
2024/02/09 03:49:42;;;;;;;20.40;9.02;;;1.00;99.90;;;;;;5011633;28;20030;-77
2024/02/09 03:52:07;;;;;;;18.60;8.02;;;1.00;99.90;;;;;;5079271;28;20369;-79
2024/02/09 03:54:34;;;;;;;12.23;7.80;;;1.00;99.90;;;;;;5011813;28;20030;-79
2024/02/09 03:57:00;;;;;;;18.02;8.60;;;1.00;99.90;;;;;;5011007;28;20034;-79
2024/02/09 03:59:27;;;;;;;13.50;8.63;;;1.00;99.90;;;;;;5087156;28;20026;-79
2024/02/09 04:01:53;;;;;;;13.40;7.70;;;1.00;99.90;;;;;;5070863;28;20018;-79
2024/02/09 04:04:19;;;;;;;14.38;7.80;;;1.10;99.90;;;;;;5079091;28;20386;-79
2024/02/09 04:06:44;;;;;;;11.02;7.47;;;1.10;99.90;;;;;;5079058;28;20014;-79
2024/02/09 04:09:10;;;;;;;12.20;7.03;;;1.10;99.90;;;;;;5079209;28;20014;-78
2024/02/09 04:11:36;;;;;;;12.88;7.10;;;1.10;99.90;;;;;;5078810;28;20106;-77
2024/02/09 04:14:01;;;;;;;8.95;6.90;;;1.10;99.90;;;;;;5011448;28;20090;-78
2024/02/09 04:16:27;;;;;;;14.73;8.20;;;1.10;99.90;;;;;;5078408;28;20022;-78
2024/02/09 04:18:52;;;;;;;15.35;9.13;;;1.10;99.90;;;;;;5095437;28;20029;-78
2024/02/09 04:21:18;;;;;;;9.95;6.22;;;1.10;99.90;;;;;;5078329;28;20018;-77
2024/02/09 04:23:44;;;;;;;10.77;6.97;;;1.10;99.90;;;;;;5095682;28;20071;-78
2024/02/09 04:26:10;;;;;;;11.68;6.53;;;1.10;99.90;;;;;;5095377;28;20026;-77
2024/02/09 04:28:36;;;;;;;12.73;7.72;;;1.10;99.90;;;;;;5086192;28;20072;-78
2024/02/09 04:31:02;;;;;;;10.77;6.97;;;1.10;99.90;;;;;;5075503;28;20552;-78
2024/02/09 04:33:28;;;;;;;11.93;7.25;;;1.10;99.90;;;;;;5010843;28;20030;-77
2024/02/09 04:35:56;;;;;;;10.38;6.63;;;1.10;99.90;;;;;;5095508;28;20026;-78
2024/02/09 04:38:22;;;;;;;13.30;8.63;;;1.10;99.90;;;;;;5109197;28;20089;-76
2024/02/09 04:40:48;;;;;;;12.77;6.72;;;1.10;99.90;;;;;;5092893;28;20020;-78
2024/02/09 04:43:13;;;;;;;13.38;8.32;;;1.10;99.90;;;;;;5109014;28;20487;-78
2024/02/09 04:45:39;;;;;;;12.48;7.95;;;1.10;99.90;;;;;;5108272;28;20019;-76
2024/02/09 04:48:05;;;;;;;12.77;8.23;;;1.20;99.90;;;;;;5093444;28;20095;-76
2024/02/09 04:50:31;;;;;;;13.43;8.20;;;1.20;99.90;;;;;;5093118;28;20012;-76
2024/02/09 04:52:57;;;;;;;12.52;8.85;;;1.20;99.90;;;;;;5093179;28;20065;-78
2024/02/09 04:55:24;;;;;;;12.88;7.65;;;1.20;99.90;;;;;;5092011;28;20423;-76
2024/02/09 04:57:49;;;;;;;16.50;9.68;;;1.20;99.90;;;;;;5093115;28;20077;-78
2024/02/09 05:00:15;;;;;;;14.05;8.20;;;1.20;99.90;;;;;;5092833;28;20016;-76
2024/02/09 05:02:46;;;;;;;17.48;8.25;;;1.20;99.90;;;;;;5093326;28;20032;-78
2024/02/09 05:05:12;;;;;;;12.63;6.95;;;1.20;99.90;;;;;;5091505;28;20031;-78
2024/02/09 05:07:38;;;;;;;12.00;7.68;;;1.20;99.90;;;;;;5080834;28;20382;-79
2024/02/09 05:10:04;;;;;;;13.10;8.52;;;1.20;99.90;;;;;;5088823;28;20031;-78
2024/02/09 05:12:30;;;;;;;15.88;9.70;;;1.20;99.90;;;;;;5091816;28;20024;-78
2024/02/09 05:14:57;;;;;;;15.07;9.70;;;1.20;99.90;;;;;;5091572;28;20016;-78
2024/02/09 05:17:23;;;;;;;19.88;10.65;;;1.20;99.90;;;;;;5091779;28;20036;-78
2024/02/09 05:19:51;;;;;;;20.38;10.48;;;1.20;99.90;;;;;;5106532;28;20008;-77
2024/02/09 05:22:16;;;;;;;19.27;10.85;;;1.30;99.90;;;;;;5084832;28;20036;-78
2024/02/09 05:24:42;;;;;;;20.67;10.27;;;1.30;99.90;;;;;;5089566;28;20016;-77
2024/02/09 05:27:10;;;;;;;17.40;10.27;;;1.30;99.90;;;;;;5091385;28;20470;-77
2024/02/09 05:29:35;;;;;;;19.77;11.35;;;1.30;99.90;;;;;;5091389;28;20013;-78
2024/02/09 05:32:01;;;;;;;18.60;10.18;;;1.30;99.90;;;;;;5091252;28;20024;-78
2024/02/09 05:34:27;;;;;;;19.67;11.90;;;1.30;99.90;;;;;;5091264;28;20070;-76
2024/02/09 05:36:54;;;;;;;19.10;11.60;;;1.30;99.90;;;;;;5092628;28;20135;-77
2024/02/09 05:39:19;;;;;;;19.98;11.02;;;1.30;99.90;;;;;;5091390;28;20051;-79
2024/02/09 05:41:45;;;;;;;21.13;11.95;;;1.30;99.90;;;;;;5091377;28;20024;-79
2024/02/09 05:44:12;;;;;;;21.15;11.18;;;1.30;99.90;;;;;;5091121;28;20074;-77
2024/02/09 05:46:37;;;;;;;20.58;11.00;;;1.30;99.90;;;;;;5091486;28;20026;-79
2024/02/09 05:49:06;;;;;;;22.17;12.10;;;1.30;99.90;;;;;;5092467;28;20028;-77
2024/02/09 05:51:33;;;;;;;21.92;11.48;;;1.30;99.90;;;;;;5092665;28;20031;-77
2024/02/09 05:53:59;;;;;;;24.38;12.40;;;1.30;99.90;;;;;;5092246;28;20085;-76
2024/02/09 05:56:27;;;;;;;19.65;11.07;;;1.20;99.90;;;;;;5091274;28;20035;-78
2024/02/09 05:58:56;;;;;;;22.77;11.10;;;1.30;99.90;;;;;;5101275;28;20123;-77
2024/02/09 06:01:29;;;;;;;28.00;12.65;;;1.30;99.90;;;;;;5091064;28;20024;-80
2024/02/09 06:03:54;;;;;;;24.15;11.70;;;1.30;99.90;;;;;;5088016;28;20024;-79
2024/02/09 06:06:23;;;;;;;25.20;11.85;;;1.30;99.90;;;;;;5090689;28;20023;-79
2024/02/09 06:08:50;;;;;;;25.10;11.73;;;1.30;99.90;;;;;;5092331;28;20102;-79
2024/02/09 06:11:16;;;;;;;23.35;11.35;;;1.30;99.90;;;;;;5090380;28;20020;-78
2024/02/09 06:13:45;;;;;;;25.90;12.77;;;1.30;99.90;;;;;;5090848;28;20461;-78
2024/02/09 06:16:14;;;;;;;25.08;13.15;;;1.30;99.90;;;;;;5086179;28;20020;-77
2024/02/09 06:18:42;;;;;;;26.40;12.70;;;1.40;99.90;;;;;;5091441;28;20040;-78
2024/02/09 06:21:08;;;;;;;26.25;12.75;;;1.40;99.90;;;;;;5089087;28;20060;-77
2024/02/09 06:23:36;;;;;;;31.00;15.38;;;1.40;99.90;;;;;;5089021;28;20031;-78
2024/02/09 06:26:02;;;;;;;27.05;13.35;;;1.40;99.90;;;;;;5094534;28;20395;-77
2024/02/09 06:28:28;;;;;;;24.42;11.88;;;1.50;99.90;;;;;;5091417;28;20115;-77
2024/02/09 06:30:55;;;;;;;21.42;11.30;;;1.50;99.90;;;;;;5083123;28;20020;-77
2024/02/09 06:33:21;;;;;;;28.50;12.32;;;1.60;99.90;;;;;;5093476;28;20025;-77
2024/02/09 06:35:50;;;;;;;22.23;12.55;;;1.60;99.90;;;;;;5099955;28;20374;-77
2024/02/09 06:38:18;;;;;;;25.00;13.20;;;1.60;99.90;;;;;;5093842;28;20060;-77
2024/02/09 06:40:45;;;;;;;25.67;12.32;;;1.60;99.90;;;;;;5088532;28;20066;-77
2024/02/09 06:43:11;;;;;;;19.48;11.25;;;1.70;99.90;;;;;;5091041;28;20228;-77
2024/02/09 06:45:37;;;;;;;21.85;12.45;;;1.70;99.90;;;;;;5108145;28;20028;-78
2024/02/09 06:48:06;;;;;;;24.65;12.35;;;1.70;99.90;;;;;;5090639;28;20024;-79
2024/02/09 06:50:35;;;;;;;27.15;13.20;;;1.70;99.90;;;;;;5094138;28;20020;-77
2024/02/09 06:53:01;;;;;;;24.63;13.35;;;1.80;99.90;;;;;;5094968;28;20020;-78
2024/02/09 06:55:27;;;;;;;33.97;15.65;;;1.80;99.90;;;;;;5093788;28;20025;-77
2024/02/09 06:57:53;;;;;;;26.23;14.23;;;1.80;99.90;;;;;;5101495;28;20039;-79
2024/02/09 07:00:19;;;;;;;25.42;12.80;;;1.80;99.90;;;;;;5095010;28;20028;-78
2024/02/09 07:02:46;;;;;;;26.50;12.52;;;1.80;99.90;;;;;;5092879;28;20406;-78
2024/02/09 07:05:14;;;;;;;25.50;12.70;;;1.80;99.90;;;;;;5093592;28;20065;-78
2024/02/09 07:07:43;;;;;;;27.55;15.48;;;1.90;99.90;;;;;;5083531;28;20032;-76
2024/02/09 07:10:13;;;;;;;28.52;16.83;;;1.90;99.90;;;;;;5091274;28;20067;-77
2024/02/09 07:12:40;;;;;;;30.70;16.30;;;1.90;99.90;;;;;;5088871;28;20048;-79
2024/02/09 07:15:06;;;;;;;26.92;14.65;;;1.90;99.90;;;;;;5096605;28;20012;-77
2024/02/09 07:17:34;;;;;;;29.85;14.88;;;2.00;99.90;;;;;;5088219;28;20034;-77
2024/02/09 07:20:00;;;;;;;33.60;16.02;;;2.00;99.90;;;;;;5091493;28;20040;-76
2024/02/09 07:22:26;;;;;;;26.67;16.30;;;2.00;99.90;;;;;;5090919;28;20124;-76
2024/02/09 07:24:52;;;;;;;29.02;15.43;;;2.00;99.90;;;;;;5088998;28;20123;-77
2024/02/09 07:27:17;;;;;;;25.90;13.70;;;2.10;99.90;;;;;;5089112;28;20028;-76
2024/02/09 07:29:45;;;;;;;25.13;14.82;;;2.10;99.90;;;;;;5089086;28;20497;-76
2024/02/09 07:32:11;;;;;;;25.13;15.30;;;2.10;99.90;;;;;;5082387;28;20016;-76
2024/02/09 07:34:37;;;;;;;24.45;14.02;;;2.20;99.90;;;;;;5090070;28;20089;-77
2024/02/09 07:37:03;;;;;;;25.88;12.02;;;2.20;99.90;;;;;;5090710;28;20123;-76
2024/02/09 07:39:31;;;;;;;23.98;13.13;;;2.20;99.90;;;;;;5086897;28;20048;-76
2024/02/09 07:41:56;;;;;;;23.15;13.30;;;2.20;99.90;;;;;;5091393;28;20036;-77
2024/02/09 07:44:22;;;;;;;28.58;14.40;;;2.30;99.90;;;;;;5092506;28;20389;-77
2024/02/09 07:46:48;;;;;;;22.02;12.52;;;2.40;99.90;;;;;;5089207;28;20020;-77
2024/02/09 07:49:15;;;;;;;22.95;12.55;;;2.40;99.90;;;;;;5093223;28;20027;-77
2024/02/09 07:51:43;;;;;;;24.50;12.65;;;2.50;99.90;;;;;;5091298;28;20473;-77
2024/02/09 07:54:09;;;;;;;28.15;13.85;;;2.60;99.90;;;;;;5094577;28;20009;-77
2024/02/09 07:56:34;;;;;;;21.50;13.25;;;2.60;99.90;;;;;;5094400;28;20478;-77
2024/02/09 07:59:00;;;;;;;25.35;12.52;;;2.70;99.90;;;;;;5092017;28;20047;-79
2024/02/09 08:01:26;;;;;;;28.02;14.85;;;2.80;99.90;;;;;;5090677;28;20013;-79
2024/02/09 08:03:57;;;;;;;22.30;13.90;;;2.80;99.90;;;;;;5093650;28;20077;-79
2024/02/09 08:06:23;;;;;;;23.45;13.07;;;2.90;99.90;;;;;;5098596;28;20024;-77
2024/02/09 08:08:52;;;;;;;24.45;14.32;;;2.90;99.90;;;;;;5089142;28;20023;-79
2024/02/09 08:11:19;;;;;;;21.50;12.20;;;2.90;99.90;;;;;;5090041;28;20045;-77
2024/02/09 08:13:45;;;;;;;21.95;11.48;;;2.90;99.90;;;;;;5088154;28;20024;-79
2024/02/09 08:16:11;;;;;;;21.23;11.80;;;3.00;99.90;;;;;;5090663;28;20496;-79
2024/02/09 08:18:36;;;;;;;24.25;13.07;;;3.00;99.90;;;;;;5093558;28;20403;-79
2024/02/09 08:21:02;;;;;;;27.48;14.52;;;3.00;99.90;;;;;;5088168;28;20024;-80
2024/02/09 08:23:29;;;;;;;27.25;13.93;;;3.10;99.90;;;;;;5092742;28;20530;-79
2024/02/09 08:25:55;;;;;;;28.10;15.05;;;3.10;99.90;;;;;;5093283;28;20016;-77
2024/02/09 08:28:20;;;;;;;23.02;12.35;;;3.20;99.90;;;;;;5093425;28;20012;-77
2024/02/09 08:30:46;;;;;;;22.83;12.88;;;3.30;99.90;;;;;;5092399;28;20024;-79
2024/02/09 08:33:12;;;;;;;25.77;13.13;;;3.30;99.90;;;;;;5093846;28;20016;-79
2024/02/09 08:35:40;;;;;;;23.65;12.93;;;3.40;99.90;;;;;;5093763;28;20032;-77
2024/02/09 08:38:07;;;;;;;23.83;12.68;;;3.40;99.90;;;;;;5092515;28;20044;-77
2024/02/09 08:40:33;;;;;;;24.35;13.48;;;3.50;99.90;;;;;;5092907;28;20097;-79
2024/02/09 08:43:00;;;;;;;29.17;15.40;;;3.60;99.90;;;;;;5093819;28;20021;-78
2024/02/09 08:45:27;;;;;;;29.85;14.80;;;3.60;99.90;;;;;;5091091;28;20056;-80
2024/02/09 08:47:53;;;;;;;24.48;13.48;;;3.70;99.90;;;;;;5093022;28;20047;-78
2024/02/09 08:50:19;;;;;;;24.52;13.10;;;3.80;99.90;;;;;;5079391;28;20025;-78
2024/02/09 08:52:45;;;;;;;25.92;13.02;;;3.80;99.90;;;;;;5092040;28;20384;-77
2024/02/09 08:55:10;;;;;;;32.08;14.02;;;3.90;99.90;;;;;;5093045;28;20028;-77
2024/02/09 08:57:36;;;;;;;27.05;13.45;;;3.90;99.90;;;;;;5093224;28;20104;-78
2024/02/09 09:00:04;;;;;;;27.27;14.30;;;4.00;99.90;;;;;;5096074;28;20032;-77
2024/02/09 09:02:30;;;;;;;28.23;14.93;;;4.00;99.90;;;;;;5093214;28;20788;-80
2024/02/09 09:04:57;;;;;;;26.05;14.15;;;4.20;99.90;;;;;;5095409;28;20024;-77
2024/02/09 09:07:22;;;;;;;30.83;15.48;;;4.20;99.90;;;;;;5093161;28;20016;-78
2024/02/09 09:09:48;;;;;;;31.48;14.48;;;4.30;99.90;;;;;;5093159;28;20099;-80
2024/02/09 09:12:14;;;;;;;26.48;13.85;;;4.30;99.90;;;;;;5093368;28;20019;-78
2024/02/09 09:14:40;;;;;;;28.63;14.55;;;4.40;99.90;;;;;;5083147;28;20029;-77
2024/02/09 09:17:06;;;;;;;31.85;14.52;;;4.40;99.90;;;;;;5091692;28;20162;-79
2024/02/09 09:19:31;;;;;;;30.25;16.17;;;4.50;99.90;;;;;;5091573;28;20120;-80
2024/02/09 09:21:57;;;;;;;30.52;15.63;;;4.60;99.90;;;;;;5077325;28;20021;-77
2024/02/09 09:24:23;;;;;;;32.30;15.57;;;4.60;99.90;;;;;;5087644;28;20058;-79
2024/02/09 09:26:49;;;;;;;38.17;18.52;;;4.70;99.90;;;;;;5091742;28;20039;-77
2024/02/09 09:29:15;;;;;;;33.08;16.50;;;4.70;99.90;;;;;;5091573;28;20024;-80
2024/02/09 09:31:41;;;;;;;32.15;15.95;;;4.80;99.90;;;;;;5092596;28;20103;-77
2024/02/09 09:34:08;;;;;;;30.10;16.33;;;4.80;99.90;;;;;;5092711;28;20126;-78
2024/02/09 09:36:34;;;;;;;30.60;17.23;;;4.90;99.90;;;;;;5092837;28;20020;-78
2024/02/09 09:39:05;;;;;;;38.05;18.70;;;4.90;99.90;;;;;;5091199;28;20050;-80
2024/02/09 09:41:40;;;;;;;32.70;17.20;;;5.00;99.90;;;;;;5092830;28;20546;-80
2024/02/09 09:44:06;;;;;;;45.33;19.92;;;5.10;99.90;;;;;;5091066;28;20024;-78
2024/02/09 09:46:37;;;;;;;36.15;17.90;;;5.10;99.90;;;;;;5074290;28;20040;-81
2024/02/09 09:49:03;;;;;;;40.40;19.48;;;5.10;99.90;;;;;;5085386;28;20481;-81
2024/02/09 09:51:33;;;;;;;34.10;18.67;;;5.20;99.90;;;;;;5095717;28;20552;-80
2024/02/09 09:54:00;;;;;;;40.42;21.23;;;5.30;99.90;;;;;;5092282;28;20016;-78
2024/02/09 09:56:28;;;;;;;39.55;18.85;;;5.30;99.90;;;;;;5098832;28;20061;-81
2024/02/09 09:58:55;;;;;;;40.10;19.30;;;5.40;99.90;;;;;;5091867;28;20107;-78
2024/02/09 10:01:21;;;;;;;34.40;18.10;;;5.50;99.90;;;;;;5090559;28;20043;-81
2024/02/09 10:03:48;;;;;;;37.05;18.92;;;5.50;99.90;;;;;;5097419;28;20546;-81
2024/02/09 10:06:14;;;;;;;41.65;22.65;;;5.60;99.90;;;;;;5089987;28;20073;-78
2024/02/09 10:08:40;;;;;;;61.10;33.15;;;5.70;99.90;;;;;;5095550;28;20031;-79
2024/02/09 10:11:06;;;;;;;85.75;47.47;;;5.70;99.90;;;;;;5095500;28;20012;-80
2024/02/09 10:13:37;;;;;;;73.53;35.17;;;5.70;99.90;;;;;;5095311;28;20392;-81
2024/02/09 10:16:03;;;;;;;67.78;32.45;;;5.80;99.90;;;;;;5094846;28;20028;-79
2024/02/09 10:18:33;;;;;;;66.88;32.50;;;5.90;99.90;;;;;;5094600;28;20036;-78
2024/02/09 10:21:00;;;;;;;66.75;32.60;;;5.90;99.90;;;;;;5096366;28;20047;-79
2024/02/09 10:23:28;;;;;;;60.92;30.52;;;6.00;99.90;;;;;;5079292;28;20417;-81
2024/02/09 10:25:56;;;;;;;59.20;30.02;;;6.00;99.90;;;;;;5089269;28;20074;-78
2024/02/09 10:28:28;;;;;;;59.38;32.17;;;6.10;99.90;;;;;;5094651;28;20416;-81
2024/02/09 10:30:53;;;;;;;64.05;32.78;;;6.10;99.90;;;;;;5095994;28;20082;-78
2024/02/09 10:33:22;;;;;;;74.55;34.10;;;6.20;99.90;;;;;;5094964;28;20051;-78
2024/02/09 10:35:48;;;;;;;76.03;36.25;;;6.30;99.90;;;;;;5094744;28;20054;-81
2024/02/09 10:38:14;;;;;;;75.10;38.85;;;6.30;99.90;;;;;;5056192;28;20132;-81
2024/02/09 10:40:40;;;;;;;73.78;38.90;;;6.40;99.90;;;;;;5012854;28;20034;-81
2024/02/09 10:43:08;;;;;;;68.05;33.22;;;6.50;99.90;;;;;;5080591;28;20020;-81
2024/02/09 10:45:39;;;;;;;68.22;33.45;;;6.50;99.90;;;;;;5011318;28;20022;-81
2024/02/09 10:48:08;;;;;;;61.80;31.63;;;6.60;99.90;;;;;;5004959;28;20022;-83
2024/02/09 10:50:35;;;;;;;61.92;31.23;;;6.70;99.90;;;;;;5012139;28;20049;-83
2024/02/09 10:53:10;;;;;;;56.42;28.92;;;6.70;99.90;;;;;;5084801;28;20038;-84
2024/02/09 10:55:42;;;;;;;50.75;24.75;;;6.80;99.90;;;;;;5086720;28;20541;-79
2024/02/09 10:58:11;;;;;;;47.15;24.27;;;6.80;99.90;;;;;;5065036;28;20048;-79
2024/02/09 11:00:38;;;;;;;50.65;23.25;;;6.90;99.90;;;;;;5082697;28;20113;-80
2024/02/09 11:03:04;;;;;;;48.20;22.70;;;7.00;99.90;;;;;;5006751;28;20058;-83
2024/02/09 11:05:30;;;;;;;44.50;21.92;;;7.00;99.90;;;;;;5011226;28;20065;-80
2024/02/09 11:07:56;;;;;;;40.25;20.63;;;7.10;99.90;;;;;;5010963;28;20579;-83
2024/02/09 11:10:22;;;;;;;43.92;20.23;;;7.10;99.90;;;;;;4999311;28;20030;-83
2024/02/09 11:12:58;;;;;;;42.92;20.90;;;7.10;99.90;;;;;;5011548;28;20033;-83
2024/02/09 11:15:23;;;;;;;41.40;21.02;;;7.20;99.90;;;;;;5079931;28;20034;-83
2024/02/09 11:17:50;;;;;;;44.58;20.25;;;7.30;99.90;;;;;;5011449;28;20045;-84
2024/02/09 11:20:17;;;;;;;48.50;22.17;;;7.30;99.90;;;;;;5079514;28;20057;-83
2024/02/09 11:22:49;;;;;;;43.38;21.35;;;7.40;99.90;;;;;;5091955;28;20018;-83
2024/02/09 11:25:19;;;;;;;38.50;21.15;;;7.50;99.90;;;;;;5011822;28;20033;-83
2024/02/09 11:27:51;;;;;;;35.45;17.63;;;7.50;99.90;;;;;;5011441;28;20022;-84
2024/02/09 11:30:21;;;;;;;36.65;18.10;;;7.60;99.90;;;;;;5078322;28;20025;-83
2024/02/09 11:32:51;;;;;;;33.95;15.38;;;7.60;99.90;;;;;;5078993;28;20037;-83
2024/02/09 11:35:17;;;;;;;211.95;191.68;;;7.60;99.90;;;;;;5022460;28;20036;-82
2024/02/09 11:37:44;;;;;;;34.45;17.20;;;7.70;99.90;;;;;;4992110;28;20065;-83
2024/02/09 11:40:12;;;;;;;28.77;15.35;;;7.70;99.90;;;;;;5061595;28;20079;-82
2024/02/09 11:42:38;;;;;;;32.47;15.73;;;7.80;99.90;;;;;;5079322;28;20046;-82
2024/02/09 11:45:06;;;;;;;37.20;18.65;;;7.90;99.90;;;;;;5071043;28;20448;-82
2024/02/09 11:47:32;;;;;;;40.40;24.08;;;8.00;99.90;;;;;;5077260;28;20496;-82
2024/02/09 11:49:58;;;;;;;43.40;22.30;;;8.00;99.90;;;;;;5084507;28;20029;-81
2024/02/09 11:52:23;;;;;;;41.28;20.75;;;8.10;99.90;;;;;;5076348;28;20038;-81
2024/02/09 11:54:49;;;;;;;34.40;17.48;;;8.20;99.90;;;;;;5078478;28;20030;-81
2024/02/09 11:57:15;;;;;;;32.25;17.10;;;8.20;99.90;;;;;;5077871;28;20030;-82
2024/02/09 11:59:41;;;;;;;30.98;15.93;;;8.30;99.90;;;;;;4999845;28;20041;-82
2024/02/09 12:02:07;;;;;;;26.40;14.45;;;8.30;99.90;;;;;;5075787;28;20425;-81
2024/02/09 12:04:33;;;;;;;30.00;13.75;;;8.30;99.90;;;;;;5063773;28;20023;-82
2024/02/09 12:06:59;;;;;;;28.77;13.52;;;8.40;99.90;;;;;;5077362;28;20113;-82
2024/02/09 12:09:31;;;;;;;27.13;12.45;;;8.40;99.90;;;;;;5009018;28;20018;-82
2024/02/09 12:11:57;;;;;;;29.73;13.82;;;8.50;99.90;;;;;;5075552;28;20072;-82
2024/02/09 12:14:22;;;;;;;34.17;12.35;;;8.50;99.90;;;;;;5001879;28;20112;-81
2024/02/09 12:16:48;;;;;;;73.72;66.63;;;8.60;99.90;;;;;;5078449;28;20092;-82
2024/02/09 12:19:14;;;;;;;30.80;14.35;;;8.60;99.90;;;;;;5069382;28;20020;-82
2024/02/09 12:21:42;;;;;;;26.67;14.30;;;8.60;99.90;;;;;;5074702;28;20026;-82
2024/02/09 12:24:09;;;;;;;34.22;14.30;;;8.70;99.90;;;;;;5073780;28;20115;-82
2024/02/09 12:26:37;;;;;;;29.35;17.20;;;8.70;99.90;;;;;;5003182;28;20105;-82
2024/02/09 12:29:14;;;;;;;32.65;16.48;;;8.80;99.90;;;;;;5075484;28;20038;-82
2024/02/09 12:31:43;;;;;;;36.17;16.70;;;8.80;99.90;;;;;;5008924;28;20025;-82
2024/02/09 12:34:09;;;;;;;39.78;19.63;;;8.80;99.90;;;;;;5081238;28;20025;-82
2024/02/09 12:36:36;;;;;;;41.28;17.67;;;8.90;99.90;;;;;;5076544;28;20022;-82
2024/02/09 12:39:07;;;;;;;37.35;19.02;;;9.00;99.90;;;;;;5078122;28;20038;-81
2024/02/09 12:41:33;;;;;;;31.30;13.10;;;9.00;99.90;;;;;;5077648;28;20030;-81
2024/02/09 12:44:03;;;;;;;23.45;9.98;;;9.10;99.90;;;;;;5073125;28;20030;-82
2024/02/09 12:46:29;;;;;;;25.02;17.13;;;9.10;99.90;;;;;;5003537;28;20055;-82
2024/02/09 12:48:55;;;;;;;25.80;11.52;;;9.10;99.90;;;;;;5077529;28;20386;-82
2024/02/09 12:51:23;;;;;;;24.05;12.85;;;9.10;99.90;;;;;;5077609;28;20100;-83
2024/02/09 12:53:49;;;;;;;36.50;14.35;;;9.10;99.90;;;;;;5077963;28;20034;-83
2024/02/09 12:56:17;;;;;;;27.95;11.38;;;9.20;99.90;;;;;;5091754;28;20030;-82
2024/02/09 12:58:43;;;;;;;45.58;22.65;;;9.20;99.90;;;;;;5075307;28;20018;-82
2024/02/09 13:01:09;;;;;;;28.25;14.35;;;9.20;99.90;;;;;;5078093;28;20072;-82
2024/02/09 13:03:35;;;;;;;28.90;14.55;;;9.30;99.90;;;;;;5076032;28;20022;-82
2024/02/09 13:06:05;;;;;;;32.25;15.50;;;9.30;99.90;;;;;;5001962;28;20096;-79
2024/02/09 13:08:32;;;;;;;27.63;15.10;;;9.30;99.90;;;;;;5003835;28;20471;-79
2024/02/09 13:10:58;;;;;;;28.10;12.65;;;9.40;99.90;;;;;;5015863;28;20033;-82
2024/02/09 13:13:24;;;;;;;39.70;16.88;;;9.40;99.90;;;;;;5000902;28;20117;-82
2024/02/09 13:15:51;;;;;;;27.73;14.15;;;9.40;99.90;;;;;;5076528;28;20559;-82
2024/02/09 13:18:16;;;;;;;24.67;15.38;;;9.40;99.90;;;;;;5005257;28;20487;-82
2024/02/09 13:20:45;;;;;;;22.05;12.85;;;9.50;99.90;;;;;;5073210;28;20030;-83
2024/02/09 13:23:11;;;;;;;43.00;18.75;;;9.50;99.90;;;;;;5081305;28;20034;-82
2024/02/09 13:25:40;;;;;;;40.78;16.02;;;9.50;99.90;;;;;;5070506;28;20111;-82
2024/02/09 13:28:06;;;;;;;29.73;12.38;;;9.60;99.90;;;;;;5006049;28;20098;-83
2024/02/09 13:30:35;;;;;;;22.42;11.18;;;9.60;99.90;;;;;;5076549;28;20942;-82
2024/02/09 13:33:02;;;;;;;22.17;11.27;;;9.60;99.90;;;;;;5073878;28;20493;-82
2024/02/09 13:35:28;;;;;;;24.83;12.05;;;9.70;99.90;;;;;;5073093;28;20092;-82
2024/02/09 13:37:54;;;;;;;32.03;13.57;;;9.70;99.90;;;;;;5081188;28;20049;-82
2024/02/09 13:40:20;;;;;;;32.65;14.57;;;9.70;99.90;;;;;;5068065;28;20018;-82
2024/02/09 13:42:51;;;;;;;29.88;14.18;;;9.60;99.90;;;;;;5077504;28;20029;-82
2024/02/09 13:45:21;;;;;;;30.80;14.05;;;9.70;99.90;;;;;;5087012;28;20122;-82
2024/02/09 13:47:47;;;;;;;493.65;244.48;;;9.60;99.90;;;;;;5066093;28;20039;-82
2024/02/09 13:50:15;;;;;;;432.38;195.88;;;9.60;99.90;;;;;;5070497;28;20026;-83
2024/02/09 13:52:43;;;;;;;355.88;144.45;;;9.60;99.90;;;;;;5069700;28;20405;-82
2024/02/09 13:55:13;;;;;;;421.75;183.98;;;9.60;99.90;;;;;;5071957;28;20463;-82
2024/02/09 13:57:46;;;;;;;214.75;89.63;;;9.60;99.90;;;;;;5004890;28;20506;-82
2024/02/09 14:00:13;;;;;;;247.27;93.55;;;9.70;99.90;;;;;;5073085;28;20033;-83
2024/02/09 14:02:40;;;;;;;60.05;21.08;;;9.60;99.90;;;;;;5074740;28;20044;-81
2024/02/09 14:05:06;;;;;;;45.60;16.77;;;9.60;99.90;;;;;;4992834;28;20056;-81
2024/02/09 14:07:31;;;;;;;36.22;17.15;;;9.60;99.90;;;;;;5006151;28;20030;-81
2024/02/09 14:09:58;;;;;;;38.40;18.73;;;9.60;99.90;;;;;;5074723;28;20037;-82
2024/02/09 14:12:24;;;;;;;57.95;22.73;;;9.50;99.90;;;;;;5073307;28;20038;-82
2024/02/09 14:14:50;;;;;;;50.75;18.35;;;9.50;99.90;;;;;;5001656;28;20459;-81
2024/02/09 14:17:16;;;;;;;30.83;14.80;;;9.50;99.90;;;;;;5018272;28;20429;-82
2024/02/09 14:19:45;;;;;;;33.15;15.57;;;9.40;99.90;;;;;;5065483;28;20062;-82
2024/02/09 14:22:12;;;;;;;26.65;12.20;;;9.40;99.90;;;;;;5008837;28;20045;-81
2024/02/09 14:24:38;;;;;;;29.23;13.38;;;9.30;99.90;;;;;;5076831;28;20456;-82